Decoded Metar for CYZU (WHITECOURT in AB, CANADA) (IATA:YZU) | Meteo·Mobile Aviation Weather
aviador You're here:

CYZU Decoded Metar

WHITECOURT in AB, CANADA
Report Time2018-09-22 18:00:00
UTC Time2018-09-22 18:28:43
Flight Rules ifr IFR
Wind100° at 10 kt
W.Decomp.*RWY 11: 8.7 kt HW 4.8 kt LCW
W.Rank100° ranks 5
Current wind is above 100° avg. (6.3)
Visibility3219 m
Phenomena:Light Snow
Clouds:N/A
Ceiling500 ft
Temp-1°C (ISA -11)
Dew Point-1°C (100% RH)
AAT-6.7°C
QNH1019 hPa
Density Alt1,135 ft
Elevation2,575 ft
Report Wrong Elevation
Raw Report
CYZU 221800Z 10010KT 2SM -SN VV005 M01/M01 A3008 RMK SN8 /S02/
SLP223=

Extra information for CYZU:More info

Metar Taf Metar & Taf Last 4 Metars F.Rules Stats Wind Profile Meteogram Temp Stats Airport Information Weather charts Add Link Nearby VenuesMetar ALERT Operation Metar Decoded Social comments